Decoded Metar for PAPM (PORT MOLLER in AK, USA) (IATA:PML) | Meteo·Mobile Aviation Weather
aviador You're here:

PAPM Decoded Metar

PORT MOLLER in AK, USA
Report Time2019-04-23 07:23:00
UTC Time2019-04-23 08:02:13
Flight Rules vfr VFR
Wind270° at 16 kt
W.Decomp.*RWY 32: 6.5 kt HW 14.6 kt LCW
Visibility9999 m
Phenomena:N/A
Clouds:Few 028 Hf
Scattered 036 Hf
Overcast 044 Hf
Expected CloudBase > 2,000 ft AGL from Temp-Dew spread
Ceiling4,400 ft
Temp-3°C (ISA -18)
Dew Point-8°C (69% RH)
AAT-11.6°C
QNH1006 hPa
Density Alt-1,909 ft
Elevation16 ft
Report Wrong Elevation
Raw Report
PAPM 230723Z AUTO 27016KT 9SM FEW028 SCT036 OVC044 M03/M08 A2972
RMK AO2 SNE21 P0000 FZRANO=

Extra information for PAPM:More info

Metar Taf Metar & Taf Last 4 Metars F.Rules Stats Wind Profile Meteogram Temp Stats Airport Information Weather charts Add Link Nearby VenuesMetar ALERT Operation Metar Decoded Social comments

AIRNAV info for PAPM